createdAt,value
2023-04-25T00:02:40.776Z,56.74
2023-04-25T00:07:42.382Z,55.75
2023-04-25T00:12:43.856Z,55.83
2023-04-25T00:17:45.462Z,56.04
2023-04-25T00:22:46.968Z,56.15
2023-04-25T00:27:48.490Z,55.06
2023-04-25T00:32:50.095Z,54.82
2023-04-25T00:37:51.605Z,54.88
2023-04-25T00:42:53.965Z,56.07
2023-04-25T00:47:56.059Z,56.09
2023-04-25T00:52:57.614Z,55.88
2023-04-25T00:57:59.252Z,55.35
2023-04-25T01:03:01.402Z,55.56
2023-04-25T01:08:03.409Z,54.46
2023-04-25T01:13:05.187Z,53.95
2023-04-25T01:18:07.064Z,53.91
2023-04-25T01:23:09.129Z,52.96
2023-04-25T01:28:10.891Z,53.09
2023-04-25T01:33:14.885Z,51.22
2023-04-25T01:38:16.708Z,52.13
2023-04-25T01:43:18.309Z,50.68
2023-04-25T01:48:20.582Z,50.16
2023-04-25T01:53:22.695Z,50.62
2023-04-25T01:58:24.278Z,50.66
2023-04-25T02:04:04.203Z,50.06
2023-04-25T02:09:10.665Z,47.80
2023-04-25T02:14:17.659Z,48.24
2023-04-25T02:19:32.802Z,49.09
2023-04-25T02:24:34.331Z,49.74
2023-04-25T02:29:35.934Z,50.18
2023-04-25T02:34:37.714Z,50.55
2023-04-25T02:39:39.122Z,50.33
2023-04-25T02:44:40.572Z,51.79
2023-04-25T02:49:42.047Z,53.13
2023-04-25T02:54:44.368Z,53.58
2023-04-25T02:59:45.921Z,53.61
2023-04-25T03:04:47.588Z,53.93
2023-04-25T03:09:49.421Z,54.71
2023-04-25T03:14:51.022Z,55.07
2023-04-25T03:19:52.730Z,54.89
2023-04-25T03:24:54.212Z,54.71
2023-04-25T03:29:55.615Z,54.25
2023-04-25T03:34:57.279Z,54.08
2023-04-25T03:40:01.044Z,54.97
2023-04-25T03:45:20.810Z,55.56
2023-04-25T03:50:22.506Z,55.63
2023-04-25T03:55:24.145Z,55.71
2023-04-25T04:00:26.448Z,55.44
2023-04-25T04:05:28.725Z,54.81
2023-04-25T04:10:31.831Z,55.24
2023-04-25T04:15:33.625Z,54.76
2023-04-25T04:20:35.210Z,55.00
2023-04-25T04:25:38.415Z,54.43
2023-04-25T04:30:51.399Z,53.93
2023-04-25T04:35:53.793Z,55.21
2023-04-25T04:40:55.829Z,56.19
2023-04-25T04:46:07.926Z,56.14
2023-04-25T04:51:27.698Z,55.41
2023-04-25T04:56:30.081Z,55.44
2023-04-25T05:01:54.129Z,55.34
2023-04-25T05:07:11.457Z,55.24
2023-04-25T05:12:37.317Z,54.84
2023-04-25T05:17:57.688Z,53.60
2023-04-25T05:23:20.917Z,54.58
2023-04-25T05:28:41.200Z,54.73
2023-04-25T05:33:54.559Z,54.24
2023-04-25T05:38:57.450Z,54.29
2023-04-25T05:44:17.330Z,52.58
2023-04-25T05:49:38.599Z,53.74
2023-04-25T05:55:00.325Z,53.26
2023-04-25T06:00:02.402Z,51.88
2023-04-25T06:05:24.324Z,52.09
2023-04-25T06:10:26.260Z,51.04
2023-04-25T06:15:29.031Z,50.70
2023-04-25T06:20:31.143Z,50.59
2023-04-25T06:25:34.904Z,52.00
2023-04-25T06:30:37.712Z,52.75
2023-04-25T06:35:43.902Z,52.76
2023-04-25T06:40:47.860Z,50.50
2023-04-25T06:45:49.711Z,49.55
2023-04-25T06:50:51.787Z,50.49
2023-04-25T06:55:54.031Z,50.84
2023-04-25T07:00:57.897Z,51.22
2023-04-25T07:06:01.461Z,51.82
2023-04-25T07:11:04.522Z,50.21
2023-04-25T07:16:06.328Z,51.68
2023-04-25T07:21:09.679Z,54.44
2023-04-25T07:26:12.400Z,55.47
2023-04-25T07:31:27.692Z,56.14
2023-04-25T07:36:29.221Z,56.83
2023-04-25T07:41:30.676Z,57.76
2023-04-25T07:46:32.431Z,58.41
2023-04-25T07:51:34.206Z,58.43
2023-04-25T07:56:51.480Z,57.75
2023-04-25T08:01:54.165Z,57.71
2023-04-25T08:06:56.364Z,58.64
2023-04-25T08:12:02.351Z,58.31
2023-04-25T08:17:07.235Z,57.71
2023-04-25T08:22:14.660Z,56.78
2023-04-25T08:27:27.119Z,57.07
2023-04-25T08:32:30.779Z,56.45
2023-04-25T08:37:52.795Z,57.11
2023-04-25T08:42:56.021Z,56.20
2023-04-25T08:47:59.691Z,57.12
2023-04-25T08:53:05.476Z,55.90
2023-04-25T08:58:08.576Z,55.87
2023-04-25T09:03:11.595Z,57.19
2023-04-25T09:08:13.745Z,56.67
2023-04-25T09:13:26.142Z,56.64
2023-04-25T09:18:50.325Z,56.09
2023-04-25T09:23:53.313Z,55.96
2023-04-25T09:29:08.634Z,56.89
2023-04-25T09:34:13.736Z,55.92
2023-04-25T09:39:20.971Z,56.75
2023-04-25T09:44:33.517Z,56.93
2023-04-25T09:49:35.341Z,58.79
2023-04-25T09:54:45.451Z,58.74
2023-04-25T09:59:56.595Z,58.62
2023-04-25T10:05:01.719Z,59.94
2023-04-25T10:10:09.905Z,59.57
2023-04-25T10:15:13.013Z,59.10
2023-04-25T10:20:15.050Z,58.96
2023-04-25T10:25:16.826Z,57.54
2023-04-25T10:30:19.254Z,56.88
2023-04-25T10:35:26.420Z,55.47
2023-04-25T10:40:28.325Z,55.02
2023-04-25T10:45:29.783Z,54.24
2023-04-25T10:50:39.013Z,53.48
2023-04-25T10:55:52.819Z,52.00
2023-04-25T11:00:57.553Z,52.36
2023-04-25T11:06:02.307Z,52.17
2023-04-25T11:11:03.955Z,49.52
2023-04-25T11:21:31.602Z,51.31
2023-04-25T11:26:33.075Z,48.87
2023-04-25T11:31:34.959Z,48.91
2023-04-25T11:36:39.222Z,48.69
2023-04-25T11:41:42.840Z,48.09
2023-04-25T11:46:47.015Z,48.97
2023-04-25T11:51:49.567Z,47.84
2023-04-25T11:56:51.105Z,45.83
2023-04-25T12:01:52.861Z,45.76
2023-04-25T12:06:55.920Z,43.05
2023-04-25T12:11:59.255Z,45.54
2023-04-25T12:17:02.944Z,42.71
2023-04-25T12:22:19.969Z,45.19
2023-04-25T12:27:21.479Z,42.80
2023-04-25T12:32:23.446Z,42.84
2023-04-25T12:37:25.056Z,42.30
2023-04-25T12:42:26.459Z,43.56
2023-04-25T12:47:28.001Z,46.76
2023-04-25T12:52:29.460Z,44.82
2023-04-25T12:57:30.892Z,44.55
2023-04-25T13:02:32.426Z,44.49
2023-04-25T13:07:35.435Z,44.38
2023-04-25T13:12:37.474Z,43.64
2023-04-25T13:17:39.380Z,43.62
2023-04-25T13:22:41.050Z,44.22
2023-04-25T13:27:42.763Z,43.67
2023-04-25T13:32:44.543Z,43.32
2023-04-25T13:37:46.041Z,43.41
2023-04-25T13:42:47.491Z,43.24
2023-04-25T13:47:49.155Z,43.93
2023-04-25T13:52:50.706Z,45.42
2023-04-25T13:57:52.168Z,43.68
2023-04-25T14:02:53.716Z,45.93
2023-04-25T14:07:55.240Z,47.61
2023-04-25T14:12:56.721Z,48.66
2023-04-25T14:17:58.255Z,45.77
2023-04-25T14:22:59.745Z,47.14
2023-04-25T14:28:01.212Z,47.99
2023-04-25T14:33:02.793Z,46.66
2023-04-25T14:38:04.259Z,47.85
2023-04-25T14:43:05.723Z,48.55
2023-04-25T14:48:07.366Z,47.42
2023-04-25T14:53:08.924Z,45.75
2023-04-25T14:58:10.338Z,45.51
2023-04-25T15:03:11.987Z,46.00
2023-04-25T15:08:13.636Z,47.35
2023-04-25T15:13:15.656Z,47.10
2023-04-25T15:18:17.915Z,45.86
2023-04-25T15:23:20.350Z,47.20
2023-04-25T15:28:21.855Z,47.51
2023-04-25T15:33:23.400Z,47.87
2023-04-25T15:38:25.009Z,47.29
2023-04-25T15:43:26.496Z,48.33
2023-04-25T15:48:27.956Z,47.01
2023-04-25T15:53:29.473Z,48.51
2023-04-25T15:58:30.943Z,49.19
2023-04-25T16:03:49.430Z,49.34
2023-04-25T16:08:51.250Z,49.91
2023-04-25T16:13:52.959Z,50.30
2023-04-25T16:18:54.669Z,49.32
2023-04-25T16:23:56.147Z,50.12
2023-04-25T16:28:57.626Z,49.66
2023-04-25T16:33:59.146Z,50.27
2023-04-25T16:39:00.626Z,55.29
2023-04-25T16:44:02.047Z,55.60
2023-04-25T16:49:03.547Z,56.16
2023-04-25T16:54:04.992Z,56.87
2023-04-25T16:59:06.399Z,58.02
2023-04-25T17:04:08.029Z,57.82
2023-04-25T17:09:09.650Z,58.73
2023-04-25T17:14:11.106Z,58.13
2023-04-25T17:19:12.508Z,58.56
2023-04-25T17:24:14.006Z,57.74
2023-04-25T17:29:15.531Z,58.61
2023-04-25T17:34:17.004Z,57.73
2023-04-25T17:39:18.567Z,59.21
2023-04-25T17:44:20.721Z,58.42
2023-04-25T17:49:22.178Z,59.29
2023-04-25T17:54:23.908Z,58.81
2023-04-25T17:59:25.413Z,56.03
2023-04-25T18:04:30.562Z,57.34
2023-04-25T18:09:32.913Z,57.42
2023-04-25T18:14:34.454Z,57.58
2023-04-25T18:19:35.958Z,57.86
2023-04-25T18:24:37.378Z,57.71
2023-04-25T18:29:38.873Z,58.82
2023-04-25T18:34:40.333Z,59.22
2023-04-25T18:39:41.788Z,59.60
2023-04-25T18:44:43.285Z,60.72
2023-04-25T18:49:45.161Z,60.27
2023-04-25T18:54:46.654Z,60.89
2023-04-25T18:59:48.104Z,60.23
2023-04-25T19:04:49.620Z,58.14
2023-04-25T19:09:51.263Z,57.54
2023-04-25T19:14:52.741Z,59.23
2023-04-25T19:19:54.230Z,58.61
2023-04-25T19:25:03.091Z,57.51
2023-04-25T19:30:11.837Z,61.58
2023-04-25T19:35:13.361Z,59.23
2023-04-25T19:40:16.469Z,59.10
2023-04-25T19:45:18.145Z,60.25
2023-04-25T19:50:19.626Z,59.95
2023-04-25T19:55:21.161Z,59.56
2023-04-25T20:00:22.636Z,59.36
2023-04-25T20:05:24.152Z,59.52
2023-04-25T20:10:25.605Z,58.95
2023-04-25T20:15:27.036Z,59.67
2023-04-25T20:20:28.527Z,58.28
2023-04-25T20:25:29.976Z,57.72
2023-04-25T20:30:31.774Z,58.56
2023-04-25T20:35:33.282Z,59.69
2023-04-25T20:40:34.760Z,59.09
2023-04-25T20:45:36.275Z,58.46
2023-04-25T20:50:37.892Z,59.30
2023-04-25T20:55:39.347Z,58.48
2023-04-25T21:00:40.769Z,59.36
2023-04-25T21:05:42.203Z,60.59
2023-04-25T21:10:43.706Z,60.96
2023-04-25T21:15:45.230Z,59.68
2023-04-25T21:20:46.845Z,59.58
2023-04-25T21:25:48.293Z,58.77
2023-04-25T21:30:50.373Z,59.53
2023-04-25T21:35:51.957Z,60.01
2023-04-25T21:40:53.526Z,61.44
2023-04-25T21:46:19.083Z,61.83
2023-04-25T21:51:16.609Z,62.03
2023-04-25T21:56:18.106Z,61.59
2023-04-25T22:01:19.604Z,61.51
2023-04-25T22:06:21.076Z,61.46
2023-04-25T22:11:22.560Z,61.47
2023-04-25T22:16:24.151Z,60.50
2023-04-25T22:21:26.889Z,60.59
2023-04-25T22:26:28.365Z,60.05
2023-04-25T22:31:30.052Z,59.38
2023-04-25T22:36:31.557Z,57.44
2023-04-25T22:41:33.051Z,58.77
2023-04-25T22:46:34.561Z,57.85
2023-04-25T22:51:36.054Z,57.88
2023-04-25T22:56:37.516Z,58.51
2023-04-25T23:01:39.036Z,57.82
2023-04-25T23:06:40.481Z,58.84
2023-04-25T23:11:42.781Z,58.56
2023-04-25T23:16:44.592Z,58.67
2023-04-25T23:21:46.077Z,57.59
2023-04-25T23:26:47.605Z,58.25
2023-04-25T23:31:49.086Z,58.21
2023-04-25T23:36:50.530Z,59.57
2023-04-25T23:41:51.942Z,58.29
2023-04-25T23:46:53.468Z,59.14
2023-04-25T23:51:54.978Z,58.52
2023-04-25T23:56:56.484Z,59.27
